Cadiz, OH (43907)

09:58 AM EDT die 29o July, anno 2016 (GMT -0400)
Steubenville Pike | | Change Station

Elev 1237 ft 40.28 °N, 80.99 °W | Updated 14 seconds ago

Overcast
Aequaliter Nubila
70.5 °F
Feels Like 70.5 °F
N
0.0
Ventus Variabilis Ventus from Inter Austrum et Zephyrum
Gusts 0.0 mph

Hodie
High -- | Low -- °F
--% Chance of Precip.
Yesterday
High -- | Low -- °F
Precip. -- in
Pressio 29.96 in
Visibilitas 7.0 milia passuum
Clouds Aequaliter Nubila 700 ft
Frigus in quo Ros apparet 70 °F
Umor 98%
Rainfall 0.00 in
Snow Depth Not available.
6:19 AM 8:41 PM
Waning Crescent, 22% visible
METAR KHLG 291353Z 22004KT 7SM OVC007 22/20 A2998 RMK AO2 CIG 003V010 SLP146 T02170200
Pressio 29.96 in
Visibilitas 7.0 milia passuum
Clouds Aequaliter Nubila 700 ft
Frigus in quo Ros apparet 70 °F
Umor 98%
Rainfall 0.00 in
Snow Depth Not available.
6:19 AM 8:41 PM
Waning Crescent, 22% visible
METAR KHLG 291353Z 22004KT 7SM OVC007 22/20 A2998 RMK AO2 CIG 003V010 SLP146 T02170200

10-Day Weather Forecast

Almanac

Astronomy

Jul. 29, 2016 Rise Set
Actual Time
Civil Twilight
Nautical Twilight
Astronomical Twilight
Moon
Length Of Visible Light
Length of Day
Tomorrow will be .
, % of the Moon is Illuminated

Today's Extremes

State Highs State Lows

Community

WunderPhotos

Upload Photos

1,928,340 photos uploaded!

WunderBlog® & News

Nearby

Air Quality

  Air Quality AQ Index Pollutant
Not available.

Snow Depth

Station Depth Elevation

Earthquake Activity

City Distance Mag. Time & Date
Minimum magnitude displayed is 2.5.

Coastal Water Temperatures

Locus Calor

Stations

Nearby Weather Stations

Station Location Temp Frigus Venti Frigus in quo Ros apparet Umor Ventus Precip. Elev Renovata Type
                   

Watches & Warnings

There are currently no watches in effect.